createdAt,value
2023-01-15T00:00:07.441Z,100562.69
2023-01-15T00:02:34.562Z,100565.09
2023-01-15T00:05:03.498Z,100541.72
2023-01-15T00:07:32.023Z,100563.19
2023-01-15T00:09:59.159Z,100563.09
2023-01-15T00:12:26.273Z,100554.47
2023-01-15T00:14:53.395Z,100575.25
2023-01-15T00:17:20.503Z,100565.88
2023-01-15T00:19:47.613Z,100574.28
2023-01-15T00:22:14.732Z,100573.81
2023-01-15T00:25:00.305Z,100574.06
2023-01-15T00:27:41.047Z,100575.34
2023-01-15T00:30:11.906Z,100560.31
2023-01-15T00:32:39.967Z,100557.66
2023-01-15T00:35:08.405Z,100569.41
2023-01-15T00:37:35.472Z,100559.81
2023-01-15T00:40:04.216Z,100558.34
2023-01-15T00:42:31.403Z,100550.78
2023-01-15T00:44:58.545Z,100555.31
2023-01-15T00:47:25.967Z,100550.28
2023-01-15T00:49:53.525Z,100547.59
2023-01-15T00:52:20.686Z,100540.31
2023-01-15T00:54:48.451Z,100538.13
2023-01-15T00:57:15.595Z,100541.03
2023-01-15T00:59:43.069Z,100540.66
2023-01-15T01:02:10.328Z,100530.50
2023-01-15T01:04:37.469Z,100527.66
2023-01-15T01:07:06.297Z,100532.63
2023-01-15T01:09:33.782Z,100526.00
2023-01-15T01:12:01.024Z,100532.19
2023-01-15T01:14:28.716Z,100512.59
2023-01-15T01:16:56.997Z,100503.69
2023-01-15T01:19:25.273Z,100527.50
2023-01-15T01:21:53.097Z,100524.16
2023-01-15T01:24:23.263Z,100514.94
2023-01-15T01:26:53.389Z,100515.28
2023-01-15T01:29:23.813Z,100527.16
2023-01-15T01:31:51.461Z,100516.66
2023-01-15T01:34:19.312Z,100514.00
2023-01-15T01:36:46.713Z,100503.22
2023-01-15T01:39:18.964Z,100515.59
2023-01-15T01:41:47.431Z,100521.06
2023-01-15T01:44:33.692Z,100513.69
2023-01-15T01:47:05.448Z,100510.91
2023-01-15T01:49:35.248Z,100506.56
2023-01-15T01:52:07.303Z,100508.00
2023-01-15T01:54:37.524Z,100507.56
2023-01-15T01:57:06.645Z,100510.91
2023-01-15T01:59:34.299Z,100518.13
2023-01-15T02:02:01.613Z,100504.38
2023-01-15T02:04:30.792Z,100516.59
2023-01-15T02:07:01.270Z,100504.22
2023-01-15T02:09:28.551Z,100515.34
2023-01-15T02:12:01.175Z,100517.59
2023-01-15T02:14:36.990Z,100512.22
2023-01-15T02:17:49.296Z,100512.44
2023-01-15T02:20:29.065Z,100507.56
2023-01-15T02:23:12.106Z,100502.88
2023-01-15T02:25:52.411Z,100495.00
2023-01-15T02:28:25.800Z,100500.69
2023-01-15T02:31:19.644Z,100491.31
2023-01-15T02:33:59.768Z,100491.66
2023-01-15T02:36:32.185Z,100489.63
2023-01-15T02:39:06.123Z,100483.94
2023-01-15T02:41:45.498Z,100502.59
2023-01-15T02:44:16.791Z,100496.84
2023-01-15T02:46:45.535Z,100503.44
2023-01-15T02:49:17.387Z,100486.69
2023-01-15T02:52:06.596Z,100505.09
2023-01-15T02:55:14.149Z,100510.91
2023-01-15T02:57:47.099Z,100484.09
2023-01-15T03:00:19.407Z,100495.16
2023-01-15T03:03:01.209Z,100498.34
2023-01-15T03:05:34.030Z,100493.47
2023-01-15T03:08:04.945Z,100499.94
2023-01-15T03:11:01.644Z,100501.63
2023-01-15T03:14:05.209Z,100493.97
2023-01-15T03:16:46.244Z,100499.34
2023-01-15T03:19:24.214Z,100501.19
2023-01-15T03:22:07.697Z,100503.78
2023-01-15T03:24:41.426Z,100507.66
2023-01-15T03:27:09.489Z,100504.53
2023-01-15T03:29:42.586Z,100504.78
2023-01-15T03:32:09.822Z,100515.09
2023-01-15T03:34:42.699Z,100512.19
2023-01-15T03:37:13.650Z,100516.34
2023-01-15T03:39:43.019Z,100514.84
2023-01-15T03:42:37.700Z,100508.72
2023-01-15T03:45:18.498Z,100511.59
2023-01-15T03:47:55.007Z,100509.56
2023-01-15T03:51:12.292Z,100517.28
2023-01-15T03:53:46.139Z,100520.47
2023-01-15T03:56:35.831Z,100520.94
2023-01-15T03:59:12.913Z,100518.09
2023-01-15T04:01:54.036Z,100514.38
2023-01-15T04:04:25.492Z,100515.44
2023-01-15T04:06:54.645Z,100510.75
2023-01-15T04:09:22.870Z,100518.44
2023-01-15T04:11:52.774Z,100505.72
2023-01-15T04:14:19.993Z,100512.59
2023-01-15T04:16:50.717Z,100506.13
2023-01-15T04:19:18.049Z,100503.28
2023-01-15T04:21:55.885Z,100497.31
2023-01-15T04:24:23.272Z,100515.59
2023-01-15T04:26:50.557Z,100521.03
2023-01-15T04:29:17.738Z,100519.63
2023-01-15T04:31:44.872Z,100526.00
2023-01-15T04:34:11.970Z,100513.41
2023-01-15T04:36:39.138Z,100515.78
2023-01-15T04:39:06.465Z,100509.91
2023-01-15T04:41:52.182Z,100502.59
2023-01-15T04:44:19.272Z,100511.59
2023-01-15T04:46:47.935Z,100506.72
2023-01-15T04:49:17.738Z,100518.19
2023-01-15T04:51:45.837Z,100507.53
2023-01-15T04:54:14.992Z,100515.25
2023-01-15T04:56:44.987Z,100510.81
2023-01-15T04:59:12.252Z,100500.03
2023-01-15T05:01:39.800Z,100506.31
2023-01-15T05:04:07.781Z,100486.03
2023-01-15T05:06:35.150Z,100506.72
2023-01-15T05:09:03.850Z,100514.75
2023-01-15T05:11:31.270Z,100515.69
2023-01-15T05:13:58.426Z,100506.38
2023-01-15T05:16:28.657Z,100513.75
2023-01-15T05:18:59.749Z,100502.84
2023-01-15T05:21:28.173Z,100501.75
2023-01-15T05:23:57.606Z,100501.69
2023-01-15T05:26:25.442Z,100499.84
2023-01-15T05:28:57.550Z,100494.31
2023-01-15T05:31:25.702Z,100496.19
2023-01-15T05:33:54.580Z,100497.34
2023-01-15T05:36:27.127Z,100494.91
2023-01-15T05:38:55.443Z,100499.69
2023-01-15T05:41:41.607Z,100498.50
2023-01-15T05:44:11.367Z,100499.59
2023-01-15T05:46:40.337Z,100490.72
2023-01-15T05:49:10.413Z,100491.63
2023-01-15T05:51:39.250Z,100502.22
2023-01-15T05:54:08.522Z,100486.28
2023-01-15T05:56:37.017Z,100498.00
2023-01-15T05:59:05.470Z,100494.66
2023-01-15T06:01:32.896Z,100500.69
2023-01-15T06:04:01.535Z,100491.63
2023-01-15T06:06:29.474Z,100502.28
2023-01-15T06:08:56.627Z,100498.94
2023-01-15T06:11:23.791Z,100503.22
2023-01-15T06:13:51.104Z,100483.94
2023-01-15T06:16:19.068Z,100494.41
2023-01-15T06:18:46.440Z,100500.34
2023-01-15T06:21:15.129Z,100504.97
2023-01-15T06:23:42.907Z,100509.06
2023-01-15T06:26:16.323Z,100495.09
2023-01-15T06:28:44.626Z,100488.63
2023-01-15T06:31:15.058Z,100491.31
2023-01-15T06:33:42.626Z,100491.31
2023-01-15T06:36:12.464Z,100499.34
2023-01-15T06:38:40.589Z,100490.53
2023-01-15T06:41:30.708Z,100490.28
2023-01-15T06:44:16.301Z,100490.03
2023-01-15T06:47:04.911Z,100507.28
2023-01-15T06:49:33.848Z,100511.41
2023-01-15T06:52:01.066Z,100512.09
2023-01-15T06:54:28.923Z,100512.28
2023-01-15T06:56:56.051Z,100516.13
2023-01-15T06:59:23.245Z,100518.63
2023-01-15T07:01:50.496Z,100515.06
2023-01-15T07:04:17.647Z,100522.13
2023-01-15T07:06:44.732Z,100510.91
2023-01-15T07:09:12.593Z,100516.09
2023-01-15T07:11:49.658Z,100511.75
2023-01-15T07:14:23.012Z,100521.63
2023-01-15T07:16:51.025Z,100521.13
2023-01-15T07:19:19.267Z,100524.56
2023-01-15T07:21:46.856Z,100515.09
2023-01-15T07:24:14.541Z,100527.81
2023-01-15T07:26:42.622Z,100519.47
2023-01-15T07:29:10.195Z,100515.75
2023-01-15T07:31:38.228Z,100510.16
2023-01-15T07:34:05.501Z,100522.22
2023-01-15T07:36:32.797Z,100517.09
2023-01-15T07:39:00.105Z,100521.28
2023-01-15T07:41:46.015Z,100511.19
2023-01-15T07:44:35.189Z,100515.91
2023-01-15T07:47:21.167Z,100512.41
2023-01-15T07:49:49.841Z,100499.50
2023-01-15T07:52:22.742Z,100505.44
2023-01-15T07:54:50.728Z,100495.97
2023-01-15T07:57:22.524Z,100510.50
2023-01-15T07:59:50.599Z,100512.50
2023-01-15T08:02:18.263Z,100510.66
2023-01-15T08:04:45.616Z,100508.66
2023-01-15T08:07:13.167Z,100511.47
2023-01-15T08:09:40.345Z,100499.63
2023-01-15T08:12:26.439Z,100507.78
2023-01-15T08:15:12.068Z,100501.69
2023-01-15T08:17:41.921Z,100490.59
2023-01-15T08:20:18.964Z,100499.94
2023-01-15T08:22:46.598Z,100488.16
2023-01-15T08:25:17.256Z,100496.38
2023-01-15T08:27:44.393Z,100475.28
2023-01-15T08:30:18.003Z,100493.19
2023-01-15T08:32:45.328Z,100500.47
2023-01-15T08:35:13.322Z,100486.19
2023-01-15T08:37:41.876Z,100503.72
2023-01-15T08:40:10.947Z,100496.34
2023-01-15T08:42:38.667Z,100506.84
2023-01-15T08:45:06.424Z,100499.94
2023-01-15T08:47:33.653Z,100493.25
2023-01-15T08:50:00.821Z,100500.19
2023-01-15T08:52:27.971Z,100490.31
2023-01-15T08:54:55.146Z,100498.47
2023-01-15T08:57:22.280Z,100501.38
2023-01-15T08:59:49.412Z,100497.97
2023-01-15T09:02:17.836Z,100500.25
2023-01-15T09:04:44.984Z,100497.19
2023-01-15T09:07:13.282Z,100499.75
2023-01-15T09:09:40.523Z,100491.16
2023-01-15T09:12:07.770Z,100497.72
2023-01-15T09:14:59.059Z,100490.25
2023-01-15T09:17:22.043Z,100497.13
2023-01-15T09:19:49.136Z,100495.28
2023-01-15T09:22:16.269Z,100497.53
2023-01-15T09:24:43.358Z,100491.72
2023-01-15T09:27:13.697Z,100478.31
2023-01-15T09:29:40.823Z,100477.84
2023-01-15T09:32:10.011Z,100484.88
2023-01-15T09:34:37.381Z,100478.41
2023-01-15T09:37:04.808Z,100477.47
2023-01-15T09:39:32.074Z,100479.47
2023-01-15T09:42:27.103Z,100487.00
2023-01-15T09:45:02.953Z,100459.50
2023-01-15T09:47:37.178Z,100476.16
2023-01-15T09:50:10.440Z,100479.47
2023-01-15T09:52:43.476Z,100464.84
2023-01-15T09:55:32.129Z,100466.16
2023-01-15T09:58:04.638Z,100471.72
2023-01-15T10:00:46.132Z,100464.31
2023-01-15T10:03:15.912Z,100466.53
2023-01-15T10:06:06.754Z,100468.78
2023-01-15T10:08:40.894Z,100463.69
2023-01-15T10:11:20.174Z,100460.19
2023-01-15T10:13:51.975Z,100457.84
2023-01-15T10:16:24.995Z,100447.44
2023-01-15T10:18:53.436Z,100463.94
2023-01-15T10:21:26.330Z,100458.72
2023-01-15T10:24:10.563Z,100466.75
2023-01-15T10:26:43.133Z,100471.31
2023-01-15T10:29:35.008Z,100470.81
2023-01-15T10:32:13.875Z,100469.25
2023-01-15T10:34:59.917Z,100471.56
2023-01-15T10:37:45.842Z,100465.84
2023-01-15T10:40:25.966Z,100451.81
2023-01-15T10:43:21.123Z,100457.09
2023-01-15T10:45:53.992Z,100449.19
2023-01-15T10:48:57.184Z,100453.72
2023-01-15T10:51:31.466Z,100449.38
2023-01-15T10:54:07.238Z,100456.19
2023-01-15T10:56:42.132Z,100460.06
2023-01-15T10:59:49.423Z,100460.44
2023-01-15T11:02:49.842Z,100452.25
2023-01-15T11:05:21.550Z,100443.34
2023-01-15T11:08:15.291Z,100435.81
2023-01-15T11:10:41.398Z,100432.00
2023-01-15T11:13:30.064Z,100437.78
2023-01-15T11:16:16.071Z,100413.97
2023-01-15T11:19:03.758Z,100439.78
2023-01-15T11:21:31.914Z,100425.31
2023-01-15T11:24:00.386Z,100424.00
2023-01-15T11:26:30.605Z,100412.47
2023-01-15T11:29:00.589Z,100419.53
2023-01-15T11:31:38.542Z,100408.94
2023-01-15T11:34:16.806Z,100416.56
2023-01-15T11:36:43.955Z,100404.69
2023-01-15T11:39:28.502Z,100396.13
2023-01-15T11:42:22.183Z,100403.75
2023-01-15T11:45:16.434Z,100396.13
2023-01-15T11:48:12.687Z,100397.03
2023-01-15T11:51:15.090Z,100396.13
2023-01-15T11:53:48.380Z,100379.78
2023-01-15T11:56:18.127Z,100394.00
2023-01-15T11:58:51.206Z,100389.25
2023-01-15T12:01:33.242Z,100382.53
2023-01-15T12:04:08.175Z,100390.19
2023-01-15T12:06:40.474Z,100382.19
2023-01-15T12:09:25.553Z,100384.22
2023-01-15T12:12:07.788Z,100389.81
2023-01-15T12:14:56.277Z,100389.63
2023-01-15T12:17:52.473Z,100387.75
2023-01-15T12:20:41.790Z,100394.44
2023-01-15T12:23:38.692Z,100390.72
2023-01-15T12:26:25.209Z,100388.84
2023-01-15T12:29:13.192Z,100388.09
2023-01-15T12:31:43.925Z,100374.34
2023-01-15T12:34:24.505Z,100394.06
2023-01-15T12:37:13.386Z,100384.84
2023-01-15T12:39:49.515Z,100391.81
2023-01-15T12:42:54.820Z,100388.75
2023-01-15T12:45:34.753Z,100389.75
2023-01-15T12:48:13.847Z,100384.00
2023-01-15T12:51:13.547Z,100380.84
2023-01-15T12:53:52.157Z,100379.94
2023-01-15T12:56:27.991Z,100400.28
2023-01-15T12:58:55.070Z,100397.22
2023-01-15T13:01:31.957Z,100400.56
2023-01-15T13:04:15.182Z,100412.09
2023-01-15T13:06:47.469Z,100410.97
2023-01-15T13:09:29.965Z,100409.88
2023-01-15T13:11:57.594Z,100422.44
2023-01-15T13:14:24.847Z,100425.50
2023-01-15T13:17:18.275Z,100422.50
2023-01-15T13:20:12.430Z,100415.81
2023-01-15T13:22:56.433Z,100424.81
2023-01-15T13:25:54.600Z,100432.38
2023-01-15T13:28:21.741Z,100431.78
2023-01-15T13:31:00.374Z,100427.13
2023-01-15T13:33:34.525Z,100435.94
2023-01-15T13:36:11.154Z,100429.38
2023-01-15T13:38:43.908Z,100433.72
2023-01-15T13:41:38.667Z,100429.66
2023-01-15T13:44:06.012Z,100437.31
2023-01-15T13:46:33.217Z,100437.16
2023-01-15T13:49:00.517Z,100436.34
2023-01-15T13:51:32.197Z,100428.00
2023-01-15T13:54:01.152Z,100433.34
2023-01-15T13:56:36.143Z,100439.59
2023-01-15T13:59:06.053Z,100427.50
2023-01-15T14:01:35.664Z,100436.06
2023-01-15T14:04:02.794Z,100440.59
2023-01-15T14:06:41.933Z,100442.22
2023-01-15T14:09:20.923Z,100439.78
2023-01-15T14:12:11.962Z,100440.91
2023-01-15T14:14:51.081Z,100447.03
2023-01-15T14:17:34.764Z,100442.94
2023-01-15T14:20:17.041Z,100441.28
2023-01-15T14:23:01.699Z,100447.03
2023-01-15T14:25:52.526Z,100452.41
2023-01-15T14:28:38.176Z,100455.81
2023-01-15T14:31:21.973Z,100440.22
2023-01-15T14:34:33.522Z,100443.28
2023-01-15T14:37:04.622Z,100446.84
2023-01-15T14:39:42.336Z,100442.41
2023-01-15T14:42:41.015Z,100435.69
2023-01-15T14:45:18.227Z,100434.56
2023-01-15T14:47:48.163Z,100443.84
2023-01-15T14:50:33.842Z,100449.19
2023-01-15T14:53:15.936Z,100446.78
2023-01-15T14:56:14.238Z,100437.69
2023-01-15T14:58:59.800Z,100415.22
2023-01-15T15:01:50.556Z,100431.13
2023-01-15T15:04:43.571Z,100416.47
2023-01-15T15:07:17.260Z,100419.16
2023-01-15T15:09:53.422Z,100424.38
2023-01-15T15:12:41.073Z,100411.16
2023-01-15T15:15:26.237Z,100406.88
2023-01-15T15:18:22.465Z,100397.66
2023-01-15T15:21:05.707Z,100400.78
2023-01-15T15:23:56.518Z,100407.47
2023-01-15T15:26:28.773Z,100406.78
2023-01-15T15:29:11.668Z,100394.97
2023-01-15T15:31:49.422Z,100388.47
2023-01-15T15:34:40.357Z,100356.28
2023-01-15T15:37:28.817Z,100389.00
2023-01-15T15:40:03.473Z,100367.13
2023-01-15T15:43:21.442Z,100382.97
2023-01-15T15:46:11.812Z,100380.66
2023-01-15T15:48:42.918Z,100388.19
2023-01-15T15:51:29.231Z,100388.84
2023-01-15T15:54:22.036Z,100375.84
2023-01-15T15:57:12.680Z,100375.31
2023-01-15T15:59:47.989Z,100370.09
2023-01-15T16:02:19.891Z,100366.81
2023-01-15T16:04:51.395Z,100369.28
2023-01-15T16:07:26.486Z,100356.22
2023-01-15T16:09:58.678Z,100366.59
2023-01-15T16:12:30.257Z,100357.47
2023-01-15T16:16:16.066Z,100359.81
2023-01-15T16:18:45.695Z,100321.94
2023-01-15T16:21:31.825Z,100354.44
2023-01-15T16:24:07.245Z,100339.66
2023-01-15T16:26:44.202Z,100329.84
2023-01-15T16:29:21.730Z,100324.81
2023-01-15T16:31:49.151Z,100320.47
2023-01-15T16:34:22.519Z,100318.97
2023-01-15T16:36:49.939Z,100303.59
2023-01-15T16:39:39.681Z,100298.81
2023-01-15T16:42:26.034Z,100296.06
2023-01-15T16:44:57.197Z,100285.84
2023-01-15T16:47:27.344Z,100288.03
2023-01-15T16:50:16.870Z,100281.16
2023-01-15T16:52:53.041Z,100284.50
2023-01-15T16:55:44.779Z,100284.81
2023-01-15T16:58:20.166Z,100290.69
2023-01-15T17:00:53.322Z,100271.94
2023-01-15T17:03:23.990Z,100277.72
2023-01-15T17:06:01.851Z,100280.16
2023-01-15T17:08:41.028Z,100274.78
2023-01-15T17:11:20.065Z,100276.81
2023-01-15T17:13:47.197Z,100283.25
2023-01-15T17:16:23.499Z,100268.75
2023-01-15T17:18:51.522Z,100289.03
2023-01-15T17:21:27.658Z,100285.34
2023-01-15T17:23:55.996Z,100283.66
2023-01-15T17:26:25.390Z,100287.94
2023-01-15T17:28:52.586Z,100266.44
2023-01-15T17:31:24.804Z,100283.75
2023-01-15T17:33:52.661Z,100295.97
2023-01-15T17:36:20.682Z,100281.06
2023-01-15T17:38:47.883Z,100293.38
2023-01-15T17:41:17.224Z,100280.91
2023-01-15T17:43:44.696Z,100292.88
2023-01-15T17:46:12.453Z,100305.09
2023-01-15T17:48:40.509Z,100303.50
2023-01-15T17:51:12.593Z,100310.03
2023-01-15T17:53:40.271Z,100290.53
2023-01-15T17:56:27.014Z,100323.59
2023-01-15T17:59:13.192Z,100307.25
2023-01-15T18:02:02.298Z,100318.38
2023-01-15T18:04:52.960Z,100307.28
2023-01-15T18:07:23.522Z,100309.44
2023-01-15T18:09:53.164Z,100312.63
2023-01-15T18:12:20.429Z,100300.59
2023-01-15T18:14:47.651Z,100313.97
2023-01-15T18:17:14.834Z,100308.78
2023-01-15T18:19:41.998Z,100312.94
2023-01-15T18:22:10.549Z,100308.09
2023-01-15T18:24:37.830Z,100306.09
2023-01-15T18:27:05.013Z,100294.78
2023-01-15T18:29:32.114Z,100299.03
2023-01-15T18:31:59.265Z,100294.53
2023-01-15T18:34:26.588Z,100298.44
2023-01-15T18:36:55.820Z,100296.53
2023-01-15T18:39:23.012Z,100302.09
2023-01-15T18:41:50.070Z,100300.91
2023-01-15T18:44:38.268Z,100290.53
2023-01-15T18:47:14.426Z,100295.88
2023-01-15T18:49:43.366Z,100285.16
2023-01-15T18:52:30.926Z,100284.00
2023-01-15T18:54:58.090Z,100296.88
2023-01-15T18:57:26.175Z,100290.00
2023-01-15T18:59:53.232Z,100284.50
2023-01-15T19:02:21.680Z,100269.53
2023-01-15T19:04:49.003Z,100290.00
2023-01-15T19:07:17.295Z,100291.53
2023-01-15T19:09:44.445Z,100293.38
2023-01-15T19:12:12.050Z,100291.03
2023-01-15T19:14:57.874Z,100274.34
2023-01-15T19:17:44.488Z,100274.28
2023-01-15T19:20:14.739Z,100259.25
2023-01-15T19:23:00.108Z,100266.94
2023-01-15T19:25:32.938Z,100271.78
2023-01-15T19:28:00.045Z,100260.56
2023-01-15T19:30:28.290Z,100258.81
2023-01-15T19:32:56.525Z,100267.69
2023-01-15T19:35:24.390Z,100248.19
2023-01-15T19:37:53.316Z,100254.03
2023-01-15T19:40:22.400Z,100228.63
2023-01-15T19:43:12.312Z,100229.88
2023-01-15T19:46:01.020Z,100252.69
2023-01-15T19:48:46.579Z,100222.44
2023-01-15T19:51:13.908Z,100246.03
2023-01-15T19:53:40.994Z,100235.44
2023-01-15T19:56:08.357Z,100240.16
2023-01-15T19:58:37.234Z,100238.78
2023-01-15T20:01:05.079Z,100216.22
2023-01-15T20:03:32.346Z,100222.09
2023-01-15T20:06:00.836Z,100225.03
2023-01-15T20:08:30.854Z,100227.97
2023-01-15T20:10:57.945Z,100227.97
2023-01-15T20:13:43.887Z,100223.00
2023-01-15T20:16:13.619Z,100234.63
2023-01-15T20:18:41.251Z,100231.13
2023-01-15T20:21:09.703Z,100231.97
2023-01-15T20:23:37.482Z,100223.28
2023-01-15T20:26:07.191Z,100211.66
2023-01-15T20:28:36.076Z,100232.03
2023-01-15T20:31:04.233Z,100218.41
2023-01-15T20:33:31.377Z,100229.09
2023-01-15T20:36:03.335Z,100208.91
2023-01-15T20:38:31.066Z,100229.03
2023-01-15T20:41:21.031Z,100212.91
2023-01-15T20:44:06.725Z,100223.44
2023-01-15T20:46:33.842Z,100218.09
2023-01-15T20:49:19.645Z,100213.91
2023-01-15T20:51:47.917Z,100214.06
2023-01-15T20:54:15.015Z,100222.94
2023-01-15T20:56:42.141Z,100215.50
2023-01-15T20:59:09.289Z,100214.41
2023-01-15T21:01:36.528Z,100203.88
2023-01-15T21:04:03.745Z,100219.41
2023-01-15T21:06:30.821Z,100203.69
2023-01-15T21:08:57.953Z,100209.63
2023-01-15T21:11:26.001Z,100201.94
2023-01-15T21:13:54.263Z,100204.03
2023-01-15T21:16:21.550Z,100196.19
2023-01-15T21:18:49.576Z,100203.72
2023-01-15T21:21:19.032Z,100208.72
2023-01-15T21:23:46.481Z,100205.94
2023-01-15T21:26:15.331Z,100203.59
2023-01-15T21:28:42.552Z,100203.44
2023-01-15T21:31:10.572Z,100194.22
2023-01-15T21:33:39.901Z,100201.00
2023-01-15T21:36:08.301Z,100196.19
2023-01-15T21:38:35.442Z,100195.81
2023-01-15T21:41:09.441Z,100197.59
2023-01-15T21:43:55.666Z,100204.38
2023-01-15T21:46:27.491Z,100191.81
2023-01-15T21:48:58.902Z,100200.50
2023-01-15T21:51:26.990Z,100191.78
2023-01-15T21:53:54.520Z,100182.94
2023-01-15T21:56:40.836Z,100181.38
2023-01-15T21:59:11.498Z,100179.63
2023-01-15T22:01:39.126Z,100180.91
2023-01-15T22:04:06.571Z,100176.56
2023-01-15T22:06:33.789Z,100178.69
2023-01-15T22:09:01.028Z,100183.97
2023-01-15T22:11:46.517Z,100184.41
2023-01-15T22:14:24.659Z,100168.53
2023-01-15T22:16:53.991Z,100187.69
2023-01-15T22:19:23.443Z,100180.75
2023-01-15T22:21:58.462Z,100184.94
2023-01-15T22:24:27.705Z,100177.50
2023-01-15T22:26:54.968Z,100176.06
2023-01-15T22:29:52.303Z,100177.91
2023-01-15T22:32:19.383Z,100172.84
2023-01-15T22:34:47.823Z,100153.66
2023-01-15T22:37:15.137Z,100175.44
2023-01-15T22:39:42.340Z,100168.72
2023-01-15T22:42:24.666Z,100163.22
2023-01-15T22:44:52.406Z,100159.47
2023-01-15T22:47:20.332Z,100169.97
2023-01-15T22:49:47.591Z,100171.66
2023-01-15T22:52:14.695Z,100161.47
2023-01-15T22:54:45.002Z,100171.53
2023-01-15T22:57:13.178Z,100166.34
2023-01-15T22:59:40.422Z,100149.66
2023-01-15T23:02:08.993Z,100151.91
2023-01-15T23:04:36.246Z,100159.34
2023-01-15T23:07:03.543Z,100154.16
2023-01-15T23:09:30.751Z,100153.84
2023-01-15T23:11:57.872Z,100142.13
2023-01-15T23:14:24.998Z,100149.91
2023-01-15T23:16:52.214Z,100146.31
2023-01-15T23:19:20.504Z,100148.63
2023-01-15T23:21:47.667Z,100126.41
2023-01-15T23:24:14.735Z,100139.38
2023-01-15T23:26:42.213Z,100135.50
2023-01-15T23:29:09.374Z,100127.53
2023-01-15T23:31:36.485Z,100133.81
2023-01-15T23:34:03.755Z,100125.53
2023-01-15T23:36:30.910Z,100129.28
2023-01-15T23:38:58.227Z,100116.75
2023-01-15T23:41:44.268Z,100111.81
2023-01-15T23:44:38.494Z,100115.19
2023-01-15T23:47:07.636Z,100109.31
2023-01-15T23:49:34.891Z,100101.16
2023-01-15T23:52:02.092Z,100103.50
2023-01-15T23:54:31.566Z,100106.91
2023-01-15T23:57:00.808Z,100108.97
2023-01-15T23:59:28.911Z,100106.72
